sensor_id;sensor_type;location;lat;lon;timestamp;pressure;altitude;pressure_sealevel;temperature;humidity
33554;BME280;19885;42.208;24.952;2023-02-21T00:01:19;100142.47;;;8.59;53.74
33554;BME280;19885;42.208;24.952;2023-02-21T00:04:05;100191.56;;;8.91;54.01
33554;BME280;19885;42.208;24.952;2023-02-21T00:06:49;100188.94;;;8.91;53.35
33554;BME280;19885;42.208;24.952;2023-02-21T00:09:33;100189.84;;;8.91;53.53
33554;BME280;19885;42.208;24.952;2023-02-21T00:12:17;100190.72;;;8.92;53.10
33554;BME280;19885;42.208;24.952;2023-02-21T00:15:01;100179.59;;;9.00;53.13
33554;BME280;19885;42.208;24.952;2023-02-21T00:17:47;100178.94;;;9.12;53.32
33554;BME280;19885;42.208;24.952;2023-02-21T00:20:32;100165.16;;;9.16;53.63
33554;BME280;19885;42.208;24.952;2023-02-21T00:23:16;100104.94;;;8.90;53.07
33554;BME280;19885;42.208;24.952;2023-02-21T00:26:00;100112.09;;;9.03;53.28
33554;BME280;19885;42.208;24.952;2023-02-21T00:28:44;100170.66;;;9.34;53.08
33554;BME280;19885;42.208;24.952;2023-02-21T00:31:28;100164.69;;;9.40;53.21
33554;BME280;19885;42.208;24.952;2023-02-21T00:34:11;100150.81;;;9.41;53.04
33554;BME280;19885;42.208;24.952;2023-02-21T00:36:55;100140.34;;;9.36;53.40
33554;BME280;19885;42.208;24.952;2023-02-21T00:39:39;100146.53;;;9.43;52.43
33554;BME280;19885;42.208;24.952;2023-02-21T00:42:26;100143.88;;;9.38;53.16
33554;BME280;19885;42.208;24.952;2023-02-21T00:45:10;100137.88;;;9.45;53.16
33554;BME280;19885;42.208;24.952;2023-02-21T00:47:53;100140.31;;;9.33;52.73
33554;BME280;19885;42.208;24.952;2023-02-21T00:50:37;100116.94;;;9.36;52.67
33554;BME280;19885;42.208;24.952;2023-02-21T00:53:23;100117.06;;;9.42;53.03
33554;BME280;19885;42.208;24.952;2023-02-21T00:56:07;100118.91;;;9.52;52.02
33554;BME280;19885;42.208;24.952;2023-02-21T00:58:51;100118.00;;;9.47;52.16
33554;BME280;19885;42.208;24.952;2023-02-21T01:01:35;100103.19;;;9.43;52.60
33554;BME280;19885;42.208;24.952;2023-02-21T01:04:19;100107.75;;;9.58;51.82
33554;BME280;19885;42.208;24.952;2023-02-21T01:07:03;100108.63;;;9.58;51.78
33554;BME280;19885;42.208;24.952;2023-02-21T01:09:47;100092.16;;;9.59;52.74
33554;BME280;19885;42.208;24.952;2023-02-21T01:12:31;100087.84;;;9.61;51.77
33554;BME280;19885;42.208;24.952;2023-02-21T01:15:15;100089.53;;;9.56;51.64
33554;BME280;19885;42.208;24.952;2023-02-21T01:17:58;100097.41;;;9.64;51.39
33554;BME280;19885;42.208;24.952;2023-02-21T01:20:42;100071.25;;;9.53;50.87
33554;BME280;19885;42.208;24.952;2023-02-21T01:23:26;100074.81;;;9.60;50.91
33554;BME280;19885;42.208;24.952;2023-02-21T01:26:10;100068.72;;;9.56;51.01
33554;BME280;19885;42.208;24.952;2023-02-21T01:28:54;100076.50;;;9.56;50.99
33554;BME280;19885;42.208;24.952;2023-02-21T01:31:38;100067.72;;;9.48;51.28
33554;BME280;19885;42.208;24.952;2023-02-21T01:34:22;100055.47;;;9.41;51.10
33554;BME280;19885;42.208;24.952;2023-02-21T01:37:06;100042.25;;;9.26;50.50
33554;BME280;19885;42.208;24.952;2023-02-21T01:39:50;100063.13;;;9.29;50.58
33554;BME280;19885;42.208;24.952;2023-02-21T01:42:34;100049.16;;;9.24;50.71
33554;BME280;19885;42.208;24.952;2023-02-21T01:48:10;100068.19;;;9.23;50.09
33554;BME280;19885;42.208;24.952;2023-02-21T01:50:56;100057.72;;;9.17;50.62
33554;BME280;19885;42.208;24.952;2023-02-21T01:53:41;100047.13;;;9.05;50.47
33554;BME280;19885;42.208;24.952;2023-02-21T01:56:26;100046.22;;;9.01;50.41
33554;BME280;19885;42.208;24.952;2023-02-21T01:59:10;100045.38;;;9.04;50.26
33554;BME280;19885;42.208;24.952;2023-02-21T02:02:03;100041.84;;;9.00;49.90
33554;BME280;19885;42.208;24.952;2023-02-21T02:04:50;100046.22;;;9.03;49.98
33554;BME280;19885;42.208;24.952;2023-02-21T02:07:36;100043.69;;;9.06;49.62
33554;BME280;19885;42.208;24.952;2023-02-21T02:10:20;100048.97;;;9.10;49.53
33554;BME280;19885;42.208;24.952;2023-02-21T02:13:28;100039.44;;;9.12;49.86
33554;BME280;19885;42.208;24.952;2023-02-21T02:16:19;100032.56;;;9.16;49.25
33554;BME280;19885;42.208;24.952;2023-02-21T02:38:35;100001.28;;;9.10;49.46
33554;BME280;19885;42.208;24.952;2023-02-21T02:43:56;100005.75;;;9.20;47.83
33554;BME280;19885;42.208;24.952;2023-02-21T02:46:30;99997.09;;;9.21;47.56
33554;BME280;19885;42.208;24.952;2023-02-21T02:49:01;99998.13;;;9.32;47.80
33554;BME280;19885;42.208;24.952;2023-02-21T02:51:28;99982.47;;;9.26;47.29
33554;BME280;19885;42.208;24.952;2023-02-21T02:53:56;99985.22;;;9.38;47.73
33554;BME280;19885;42.208;24.952;2023-02-21T02:56:22;99976.56;;;9.39;47.04
33554;BME280;19885;42.208;24.952;2023-02-21T03:13:33;99983.03;;;9.70;45.94
33554;BME280;19885;42.208;24.952;2023-02-21T03:15:58;99959.63;;;9.71;47.04
33554;BME280;19885;42.208;24.952;2023-02-21T03:18:33;99973.56;;;9.78;47.26
33554;BME280;19885;42.208;24.952;2023-02-21T03:21:03;99971.03;;;9.84;46.99
33554;BME280;19885;42.208;24.952;2023-02-21T03:23:31;99973.78;;;9.96;46.80
33554;BME280;19885;42.208;24.952;2023-02-21T03:26:05;99970.28;;;9.92;46.47
33554;BME280;19885;42.208;24.952;2023-02-21T03:28:32;99965.19;;;10.01;46.97
33554;BME280;19885;42.208;24.952;2023-02-21T03:30:59;99973.16;;;10.15;45.99
33554;BME280;19885;42.208;24.952;2023-02-21T03:33:25;99982.69;;;10.18;46.52
33554;BME280;19885;42.208;24.952;2023-02-21T03:35:51;99978.44;;;10.24;46.64
33554;BME280;19885;42.208;24.952;2023-02-21T03:38:17;99981.06;;;10.24;46.81
33554;BME280;19885;42.208;24.952;2023-02-21T03:40:43;99984.50;;;10.22;47.71
33554;BME280;19885;42.208;24.952;2023-02-21T03:43:08;99992.31;;;10.22;47.26
33554;BME280;19885;42.208;24.952;2023-02-21T03:45:35;99996.69;;;10.24;46.84
33554;BME280;19885;42.208;24.952;2023-02-21T03:48:01;99994.03;;;10.20;47.03
33554;BME280;19885;42.208;24.952;2023-02-21T03:50:27;100007.94;;;10.22;47.22
33554;BME280;19885;42.208;24.952;2023-02-21T03:52:53;99989.72;;;10.25;47.06
33554;BME280;19885;42.208;24.952;2023-02-21T03:55:19;99985.38;;;10.24;46.37
33554;BME280;19885;42.208;24.952;2023-02-21T03:57:47;99985.38;;;10.24;46.78
33554;BME280;19885;42.208;24.952;2023-02-21T04:00:15;99983.66;;;10.26;46.52
33554;BME280;19885;42.208;24.952;2023-02-21T04:02:44;99989.72;;;10.23;46.88
33554;BME280;19885;42.208;24.952;2023-02-21T04:05:09;99989.75;;;10.28;46.22
33554;BME280;19885;42.208;24.952;2023-02-21T04:07:35;99994.09;;;10.26;46.14
33554;BME280;19885;42.208;24.952;2023-02-21T04:10:00;99994.91;;;10.22;46.45
33554;BME280;19885;42.208;24.952;2023-02-21T04:12:26;99990.50;;;10.15;46.45
33554;BME280;19885;42.208;24.952;2023-02-21T04:14:52;99995.56;;;10.05;45.91
33554;BME280;19885;42.208;24.952;2023-02-21T04:17:20;99992.16;;;10.10;45.52
33554;BME280;19885;42.208;24.952;2023-02-21T04:19:46;99982.53;;;10.02;46.04
33554;BME280;19885;42.208;24.952;2023-02-21T04:22:12;99977.28;;;9.99;45.15
33554;BME280;19885;42.208;24.952;2023-02-21T04:24:37;99983.34;;;9.98;46.04
33554;BME280;19885;42.208;24.952;2023-02-21T04:27:03;99991.09;;;9.92;46.08
33554;BME280;19885;42.208;24.952;2023-02-21T04:29:28;99987.63;;;9.93;46.42
33554;BME280;19885;42.208;24.952;2023-02-21T04:31:54;99993.59;;;9.85;46.57
33554;BME280;19885;42.208;24.952;2023-02-21T04:34:20;99988.34;;;9.80;46.67
33554;BME280;19885;42.208;24.952;2023-02-21T04:36:46;100000.41;;;9.74;47.35
33554;BME280;19885;42.208;24.952;2023-02-21T04:39:11;99975.97;;;9.60;47.00
33554;BME280;19885;42.208;24.952;2023-02-21T04:41:38;99993.50;;;9.74;47.38
33554;BME280;19885;42.208;24.952;2023-02-21T04:44:04;99989.03;;;9.64;47.51
33554;BME280;19885;42.208;24.952;2023-02-21T04:46:30;99982.06;;;9.63;47.40
33554;BME280;19885;42.208;24.952;2023-02-21T04:48:56;99994.22;;;9.63;47.40
33554;BME280;19885;42.208;24.952;2023-02-21T04:51:23;99985.34;;;9.47;47.68
33554;BME280;19885;42.208;24.952;2023-02-21T04:53:50;100005.91;;;9.29;48.61
33554;BME280;19885;42.208;24.952;2023-02-21T04:56:18;99992.16;;;9.39;48.15
33554;BME280;19885;42.208;24.952;2023-02-21T04:58:45;99990.56;;;9.50;48.04
33554;BME280;19885;42.208;24.952;2023-02-21T05:01:12;100017.59;;;9.61;48.18
33554;BME280;19885;42.208;24.952;2023-02-21T05:03:38;99999.38;;;9.58;47.76
33554;BME280;19885;42.208;24.952;2023-02-21T05:06:04;100016.69;;;9.58;48.60
33554;BME280;19885;42.208;24.952;2023-02-21T05:08:30;100018.13;;;9.36;48.15
33554;BME280;19885;42.208;24.952;2023-02-21T05:10:58;100011.28;;;9.43;48.20
33554;BME280;19885;42.208;24.952;2023-02-21T05:13:24;100022.16;;;9.16;48.80
33554;BME280;19885;42.208;24.952;2023-02-21T05:15:49;100023.56;;;8.94;49.41
33554;BME280;19885;42.208;24.952;2023-02-21T05:18:15;100023.50;;;8.91;50.05
33554;BME280;19885;42.208;24.952;2023-02-21T05:20:48;100019.53;;;9.13;49.20
33554;BME280;19885;42.208;24.952;2023-02-21T05:23:13;100020.78;;;8.82;49.86
33554;BME280;19885;42.208;24.952;2023-02-21T05:25:41;100017.44;;;8.91;49.84
33554;BME280;19885;42.208;24.952;2023-02-21T05:28:07;100017.72;;;9.09;50.39
33554;BME280;19885;42.208;24.952;2023-02-21T05:30:33;100010.53;;;8.93;49.96
33554;BME280;19885;42.208;24.952;2023-02-21T05:32:58;99994.50;;;8.63;50.68
33554;BME280;19885;42.208;24.952;2023-02-21T05:35:24;100012.16;;;8.85;50.90
33554;BME280;19885;42.208;24.952;2023-02-21T05:37:49;100001.22;;;9.05;51.94
33554;BME280;19885;42.208;24.952;2023-02-21T05:40:15;99999.00;;;9.32;50.72
33554;BME280;19885;42.208;24.952;2023-02-21T05:42:41;100001.06;;;9.56;50.15
33554;BME280;19885;42.208;24.952;2023-02-21T05:45:07;99999.50;;;9.70;49.90
33554;BME280;19885;42.208;24.952;2023-02-21T05:47:34;100005.78;;;9.87;48.76
33554;BME280;19885;42.208;24.952;2023-02-21T05:50:00;99978.81;;;9.82;48.53
33554;BME280;19885;42.208;24.952;2023-02-21T05:52:25;100002.47;;;10.00;48.98
33554;BME280;19885;42.208;24.952;2023-02-21T05:54:51;99989.28;;;9.88;49.21
33554;BME280;19885;42.208;24.952;2023-02-21T05:57:17;99963.16;;;9.79;48.54
33554;BME280;19885;42.208;24.952;2023-02-21T05:59:42;100020.78;;;10.10;48.13
33554;BME280;19885;42.208;24.952;2023-02-21T06:02:08;100012.94;;;10.06;47.52
33554;BME280;19885;42.208;24.952;2023-02-21T06:04:34;100025.09;;;10.06;47.06
33554;BME280;19885;42.208;24.952;2023-02-21T06:06:59;100029.47;;;10.10;47.87
33554;BME280;19885;42.208;24.952;2023-02-21T06:09:25;100028.69;;;10.14;46.89
33554;BME280;19885;42.208;24.952;2023-02-21T06:11:54;100019.16;;;10.15;47.19
33554;BME280;19885;42.208;24.952;2023-02-21T06:14:20;100019.94;;;10.11;47.05
33554;BME280;19885;42.208;24.952;2023-02-21T06:16:46;100021.81;;;10.21;46.82
33554;BME280;19885;42.208;24.952;2023-02-21T06:19:13;100005.25;;;10.16;46.12
33554;BME280;19885;42.208;24.952;2023-02-21T06:21:41;100027.06;;;10.24;47.15
33554;BME280;19885;42.208;24.952;2023-02-21T06:24:08;100040.19;;;10.33;46.56
33554;BME280;19885;42.208;24.952;2023-02-21T06:26:34;100027.16;;;10.33;45.98
33554;BME280;19885;42.208;24.952;2023-02-21T06:29:03;100038.53;;;10.42;47.34
33554;BME280;19885;42.208;24.952;2023-02-21T06:31:28;100035.00;;;10.37;46.67
33554;BME280;19885;42.208;24.952;2023-02-21T06:33:54;100038.50;;;10.41;48.16
33554;BME280;19885;42.208;24.952;2023-02-21T06:36:23;100044.69;;;10.52;47.91
33554;BME280;19885;42.208;24.952;2023-02-21T06:38:50;100009.94;;;10.50;47.51
33554;BME280;19885;42.208;24.952;2023-02-21T06:41:18;100043.25;;;10.81;47.88
33554;BME280;19885;42.208;24.952;2023-02-21T06:43:44;100029.44;;;10.94;46.97
33554;BME280;19885;42.208;24.952;2023-02-21T06:46:15;100027.78;;;11.04;46.76
33554;BME280;19885;42.208;24.952;2023-02-21T06:48:41;100032.19;;;11.12;46.18
33554;BME280;19885;42.208;24.952;2023-02-21T06:51:07;100011.41;;;11.27;46.49
33554;BME280;19885;42.208;24.952;2023-02-21T06:53:39;100011.56;;;11.52;46.25
33554;BME280;19885;42.208;24.952;2023-02-21T06:56:05;100000.28;;;11.62;46.71
33554;BME280;19885;42.208;24.952;2023-02-21T06:58:30;100003.06;;;11.92;46.00
33554;BME280;19885;42.208;24.952;2023-02-21T07:00:56;100004.91;;;12.26;45.26
33554;BME280;19885;42.208;24.952;2023-02-21T07:03:21;99998.84;;;12.38;45.32
33554;BME280;19885;42.208;24.952;2023-02-21T07:05:47;100018.91;;;12.60;44.90
33554;BME280;19885;42.208;24.952;2023-02-21T07:08:12;100011.06;;;12.67;44.62
33554;BME280;19885;42.208;24.952;2023-02-21T07:10:38;100013.66;;;12.79;44.70
33554;BME280;19885;42.208;24.952;2023-02-21T07:13:03;100018.91;;;12.95;44.21
33554;BME280;19885;42.208;24.952;2023-02-21T07:15:29;100000.59;;;13.04;44.19
33554;BME280;19885;42.208;24.952;2023-02-21T07:17:54;100015.41;;;13.20;44.06
33554;BME280;19885;42.208;24.952;2023-02-21T07:20:20;100008.44;;;13.23;43.71
33554;BME280;19885;42.208;24.952;2023-02-21T07:22:45;100004.94;;;13.35;43.94
33554;BME280;19885;42.208;24.952;2023-02-21T07:25:16;100000.53;;;13.50;43.97
33554;BME280;19885;42.208;24.952;2023-02-21T07:27:42;99999.53;;;13.77;43.60
33554;BME280;19885;42.208;24.952;2023-02-21T07:30:08;99996.88;;;13.86;43.33
33554;BME280;19885;42.208;24.952;2023-02-21T07:32:34;99990.72;;;13.96;43.64
33554;BME280;19885;42.208;24.952;2023-02-21T07:34:59;99969.78;;;13.96;41.86
33554;BME280;19885;42.208;24.952;2023-02-21T07:37:25;99920.09;;;13.77;42.20
33554;BME280;19885;42.208;24.952;2023-02-21T07:39:52;99993.19;;;14.23;42.83
33554;BME280;19885;42.208;24.952;2023-02-21T07:42:17;99995.66;;;14.52;41.04
33554;BME280;19885;42.208;24.952;2023-02-21T07:44:43;99993.09;;;14.46;41.12
33554;BME280;19885;42.208;24.952;2023-02-21T07:47:08;99975.59;;;14.47;41.64
33554;BME280;19885;42.208;24.952;2023-02-21T07:49:38;99989.47;;;14.61;41.29
33554;BME280;19885;42.208;24.952;2023-02-21T07:52:04;99975.31;;;14.83;41.33
33554;BME280;19885;42.208;24.952;2023-02-21T07:54:29;99975.94;;;15.09;40.07
33554;BME280;19885;42.208;24.952;2023-02-21T07:56:55;99966.22;;;15.19;38.78
33554;BME280;19885;42.208;24.952;2023-02-21T07:59:20;99959.88;;;15.36;39.01
33554;BME280;19885;42.208;24.952;2023-02-21T08:01:46;99962.34;;;15.56;38.41
33554;BME280;19885;42.208;24.952;2023-02-21T08:04:12;99893.72;;;15.04;38.13
33554;BME280;19885;42.208;24.952;2023-02-21T08:06:37;99959.34;;;15.85;37.29
33554;BME280;19885;42.208;24.952;2023-02-21T08:09:04;99952.31;;;16.46;36.42
33554;BME280;19885;42.208;24.952;2023-02-21T08:11:31;99971.66;;;16.40;35.95
33554;BME280;19885;42.208;24.952;2023-02-21T08:13:58;99961.81;;;16.56;35.21
33554;BME280;19885;42.208;24.952;2023-02-21T08:16:23;99968.50;;;16.75;35.73
33554;BME280;19885;42.208;24.952;2023-02-21T08:18:49;99955.31;;;16.78;35.08
33554;BME280;19885;42.208;24.952;2023-02-21T08:21:17;99963.28;;;16.72;35.13
33554;BME280;19885;42.208;24.952;2023-02-21T08:23:43;99954.53;;;16.73;35.54
33554;BME280;19885;42.208;24.952;2023-02-21T08:26:08;99953.09;;;16.53;35.68
33554;BME280;19885;42.208;24.952;2023-02-21T08:28:34;99951.13;;;16.65;35.74
33554;BME280;19885;42.208;24.952;2023-02-21T08:31:01;99935.97;;;16.79;35.63
33554;BME280;19885;42.208;24.952;2023-02-21T08:33:27;99935.41;;;16.61;36.11
33554;BME280;19885;42.208;24.952;2023-02-21T08:35:52;99919.19;;;16.86;35.98
33554;BME280;19885;42.208;24.952;2023-02-21T08:38:18;99941.53;;;17.11;34.67
33554;BME280;19885;42.208;24.952;2023-02-21T08:40:44;99931.44;;;17.35;34.57
33554;BME280;19885;42.208;24.952;2023-02-21T08:43:10;99928.22;;;17.65;34.50
33554;BME280;19885;42.208;24.952;2023-02-21T08:45:35;99937.75;;;17.70;33.84
33554;BME280;19885;42.208;24.952;2023-02-21T08:48:01;99863.22;;;17.20;34.31
33554;BME280;19885;42.208;24.952;2023-02-21T08:50:27;99925.41;;;17.74;34.12
33554;BME280;19885;42.208;24.952;2023-02-21T08:52:53;99927.28;;;18.07;34.28
33554;BME280;19885;42.208;24.952;2023-02-21T08:55:20;99916.31;;;18.25;33.38
33554;BME280;19885;42.208;24.952;2023-02-21T08:57:51;99918.53;;;18.05;33.62
33554;BME280;19885;42.208;24.952;2023-02-21T09:00:19;99869.69;;;17.89;33.50
33554;BME280;19885;42.208;24.952;2023-02-21T09:02:48;99901.84;;;18.41;33.62
33554;BME280;19885;42.208;24.952;2023-02-21T09:05:17;99906.69;;;18.60;33.03
33554;BME280;19885;42.208;24.952;2023-02-21T09:07:46;99854.72;;;18.62;32.71
33554;BME280;19885;42.208;24.952;2023-02-21T09:10:12;99885.00;;;19.13;33.03
33554;BME280;19885;42.208;24.952;2023-02-21T09:12:37;99876.81;;;19.54;32.92
33554;BME280;19885;42.208;24.952;2023-02-21T09:15:04;99877.19;;;19.71;31.15
33554;BME280;19885;42.208;24.952;2023-02-21T09:17:30;99876.38;;;19.69;31.56
33554;BME280;19885;42.208;24.952;2023-02-21T09:20:07;99875.56;;;19.95;30.45
33554;BME280;19885;42.208;24.952;2023-02-21T09:22:33;99866.38;;;20.07;31.24
33554;BME280;19885;42.208;24.952;2023-02-21T09:25:00;99859.19;;;20.38;30.53
33554;BME280;19885;42.208;24.952;2023-02-21T09:27:26;99857.81;;;20.52;30.22
33554;BME280;19885;42.208;24.952;2023-02-21T09:30:10;99858.38;;;20.62;30.86
33554;BME280;19885;42.208;24.952;2023-02-21T09:32:37;99866.59;;;20.79;29.62
33554;BME280;19885;42.208;24.952;2023-02-21T09:35:03;99856.56;;;20.89;29.53
33554;BME280;19885;42.208;24.952;2023-02-21T09:37:29;99854.88;;;20.86;29.70
33554;BME280;19885;42.208;24.952;2023-02-21T09:39:56;99837.25;;;20.85;29.79
33554;BME280;19885;42.208;24.952;2023-02-21T09:42:27;99842.78;;;21.04;29.16
33554;BME280;19885;42.208;24.952;2023-02-21T09:44:54;99851.38;;;21.10;29.51
33554;BME280;19885;42.208;24.952;2023-02-21T09:47:26;99845.63;;;21.22;28.58
33554;BME280;19885;42.208;24.952;2023-02-21T09:49:58;99834.97;;;21.47;29.24
33554;BME280;19885;42.208;24.952;2023-02-21T09:52:31;99829.72;;;21.69;28.21
33554;BME280;19885;42.208;24.952;2023-02-21T09:54:59;99780.03;;;21.51;28.37
33554;BME280;19885;42.208;24.952;2023-02-21T09:57:26;99824.69;;;21.84;27.97
33554;BME280;19885;42.208;24.952;2023-02-21T09:59:52;99812.34;;;21.83;27.09
33554;BME280;19885;42.208;24.952;2023-02-21T10:02:42;99753.19;;;21.58;27.13
33554;BME280;19885;42.208;24.952;2023-02-21T10:10:46;99801.50;;;22.51;25.72
33554;BME280;19885;42.208;24.952;2023-02-21T10:13:25;99785.25;;;22.59;26.19
33554;BME280;19885;42.208;24.952;2023-02-21T10:16:18;99779.16;;;22.57;26.12
33554;BME280;19885;42.208;24.952;2023-02-21T10:21:38;99783.47;;;22.59;26.11
33554;BME280;19885;42.208;24.952;2023-02-21T10:24:12;99766.84;;;22.54;26.24
33554;BME280;19885;42.208;24.952;2023-02-21T10:26:40;99759.81;;;22.53;26.41
33554;BME280;19885;42.208;24.952;2023-02-21T10:29:34;99747.75;;;22.66;25.60
33554;BME280;19885;42.208;24.952;2023-02-21T10:32:02;99714.91;;;22.47;25.89
33554;BME280;19885;42.208;24.952;2023-02-21T10:34:29;99755.56;;;22.69;25.98
33554;BME280;19885;42.208;24.952;2023-02-21T10:36:59;99753.38;;;22.79;25.49
33554;BME280;19885;42.208;24.952;2023-02-21T10:39:54;99750.59;;;22.42;24.82
33554;BME280;19885;42.208;24.952;2023-02-21T10:42:29;99752.84;;;21.89;25.13
33554;BME280;19885;42.208;24.952;2023-02-21T10:44:56;99727.84;;;21.73;25.71
33554;BME280;19885;42.208;24.952;2023-02-21T10:47:31;99738.00;;;21.85;25.28
33554;BME280;19885;42.208;24.952;2023-02-21T10:50:07;99728.66;;;21.96;24.92
33554;BME280;19885;42.208;24.952;2023-02-21T10:52:50;99729.47;;;22.19;24.52
33554;BME280;19885;42.208;24.952;2023-02-21T10:55:21;99723.19;;;22.21;24.50
33554;BME280;19885;42.208;24.952;2023-02-21T10:57:55;99720.13;;;21.88;24.35
33554;BME280;19885;42.208;24.952;2023-02-21T11:00:32;99716.13;;;21.78;24.93
33554;BME280;19885;42.208;24.952;2023-02-21T11:03:06;99695.44;;;21.65;24.92
33554;BME280;19885;42.208;24.952;2023-02-21T11:05:34;99699.66;;;21.49;24.83
33554;BME280;19885;42.208;24.952;2023-02-21T11:08:09;99717.66;;;21.41;25.87
33554;BME280;19885;42.208;24.952;2023-02-21T11:10:37;99698.41;;;21.36;25.32
33554;BME280;19885;42.208;24.952;2023-02-21T11:13:16;99680.47;;;21.20;25.46
33554;BME280;19885;42.208;24.952;2023-02-21T11:15:45;99698.28;;;21.17;26.08
33554;BME280;19885;42.208;24.952;2023-02-21T11:18:15;99693.34;;;21.08;25.60
33554;BME280;19885;42.208;24.952;2023-02-21T11:20:41;99684.03;;;20.96;26.34
33554;BME280;19885;42.208;24.952;2023-02-21T11:23:26;99674.81;;;21.06;26.72
33554;BME280;19885;42.208;24.952;2023-02-21T11:26:05;99663.50;;;21.24;26.61
33554;BME280;19885;42.208;24.952;2023-02-21T11:28:45;99639.84;;;21.42;26.83
33554;BME280;19885;42.208;24.952;2023-02-21T11:33:43;99648.97;;;21.98;25.29
33554;BME280;19885;42.208;24.952;2023-02-21T11:36:16;99633.16;;;22.15;25.33
33554;BME280;19885;42.208;24.952;2023-02-21T11:38:45;99652.53;;;22.37;25.38
33554;BME280;19885;42.208;24.952;2023-02-21T11:41:50;99631.41;;;22.34;24.23
33554;BME280;19885;42.208;24.952;2023-02-21T11:47:13;99612.28;;;22.46;23.25
33554;BME280;19885;42.208;24.952;2023-02-21T11:52:41;99596.78;;;22.75;23.59
33554;BME280;19885;42.208;24.952;2023-02-21T11:55:14;99593.78;;;22.82;23.55
33554;BME280;19885;42.208;24.952;2023-02-21T11:58:09;99589.69;;;22.94;23.12
33554;BME280;19885;42.208;24.952;2023-02-21T12:00:50;99593.47;;;23.07;23.23
33554;BME280;19885;42.208;24.952;2023-02-21T12:04:00;99587.84;;;23.13;23.61
33554;BME280;19885;42.208;24.952;2023-02-21T12:07:01;99577.38;;;23.27;23.31
33554;BME280;19885;42.208;24.952;2023-02-21T12:15:36;99569.06;;;23.52;22.61
33554;BME280;19885;42.208;24.952;2023-02-21T12:18:05;99557.28;;;23.57;22.74
33554;BME280;19885;42.208;24.952;2023-02-21T12:20:54;99555.84;;;23.67;22.68
33554;BME280;19885;42.208;24.952;2023-02-21T12:32:14;99542.88;;;23.61;21.05
33554;BME280;19885;42.208;24.952;2023-02-21T12:45:44;99539.19;;;23.64;20.10
33554;BME280;19885;42.208;24.952;2023-02-21T12:48:30;99487.59;;;23.32;21.06
33554;BME280;19885;42.208;24.952;2023-02-21T12:51:03;99528.06;;;23.56;20.22
33554;BME280;19885;42.208;24.952;2023-02-21T12:53:40;99518.94;;;23.44;20.76
33554;BME280;19885;42.208;24.952;2023-02-21T12:56:11;99530.94;;;23.51;20.96
33554;BME280;19885;42.208;24.952;2023-02-21T12:58:50;99526.69;;;23.49;20.31
33554;BME280;19885;42.208;24.952;2023-02-21T13:01:32;99521.41;;;23.47;20.06
33554;BME280;19885;42.208;24.952;2023-02-21T13:06:50;99519.50;;;23.32;20.73
33554;BME280;19885;42.208;24.952;2023-02-21T13:11:54;99501.91;;;23.29;20.95
33554;BME280;19885;42.208;24.952;2023-02-21T13:14:41;99510.91;;;23.27;21.03
33554;BME280;19885;42.208;24.952;2023-02-21T13:17:15;99506.13;;;23.16;20.87
33554;BME280;19885;42.208;24.952;2023-02-21T13:19:49;99495.31;;;23.19;20.90
33554;BME280;19885;42.208;24.952;2023-02-21T13:28:24;99486.25;;;23.06;20.95
33554;BME280;19885;42.208;24.952;2023-02-21T13:30:56;99478.19;;;22.91;20.61
33554;BME280;19885;42.208;24.952;2023-02-21T13:36:21;99472.41;;;22.83;21.11
33554;BME280;19885;42.208;24.952;2023-02-21T13:39:16;99478.94;;;22.76;21.50
33554;BME280;19885;42.208;24.952;2023-02-21T13:41:49;99466.34;;;22.79;22.57
33554;BME280;19885;42.208;24.952;2023-02-21T13:44:27;99472.44;;;22.81;21.85
33554;BME280;19885;42.208;24.952;2023-02-21T13:47:07;99484.50;;;22.71;21.27
33554;BME280;19885;42.208;24.952;2023-02-21T14:03:09;99458.66;;;22.37;22.40
33554;BME280;19885;42.208;24.952;2023-02-21T14:13:38;99433.91;;;22.18;22.54
33554;BME280;19885;42.208;24.952;2023-02-21T14:24:10;99473.63;;;22.38;22.42
33554;BME280;19885;42.208;24.952;2023-02-21T14:36:57;99437.84;;;22.10;23.03
33554;BME280;19885;42.208;24.952;2023-02-21T14:39:30;99459.44;;;22.21;23.10
33554;BME280;19885;42.208;24.952;2023-02-21T14:45:03;99451.34;;;22.05;23.42
33554;BME280;19885;42.208;24.952;2023-02-21T14:53:25;99464.66;;;22.03;22.96
33554;BME280;19885;42.208;24.952;2023-02-21T15:04:03;99467.50;;;21.80;23.63
33554;BME280;19885;42.208;24.952;2023-02-21T15:06:33;99454.44;;;21.76;24.01
33554;BME280;19885;42.208;24.952;2023-02-21T15:09:11;99471.28;;;21.75;23.91
33554;BME280;19885;42.208;24.952;2023-02-21T15:11:38;99478.38;;;21.74;23.74
33554;BME280;19885;42.208;24.952;2023-02-21T15:14:24;99479.38;;;21.72;23.91
33554;BME280;19885;42.208;24.952;2023-02-21T15:16:55;99474.34;;;21.66;23.90
33554;BME280;19885;42.208;24.952;2023-02-21T15:24:40;99469.38;;;21.38;24.57
33554;BME280;19885;42.208;24.952;2023-02-21T15:27:11;99473.91;;;21.36;24.43
33554;BME280;19885;42.208;24.952;2023-02-21T15:29:37;99472.22;;;21.33;24.74
33554;BME280;19885;42.208;24.952;2023-02-21T15:32:03;99482.31;;;21.25;24.52
33554;BME280;19885;42.208;24.952;2023-02-21T15:34:38;99431.75;;;20.88;24.49
33554;BME280;19885;42.208;24.952;2023-02-21T15:37:15;99475.28;;;21.04;24.17
33554;BME280;19885;42.208;24.952;2023-02-21T15:39:44;99478.94;;;21.00;24.23
33554;BME280;19885;42.208;24.952;2023-02-21T15:42:14;99476.94;;;20.85;24.41
33554;BME280;19885;42.208;24.952;2023-02-21T15:44:54;99480.69;;;20.80;24.84
33554;BME280;19885;42.208;24.952;2023-02-21T15:47:22;99481.38;;;20.63;24.69
33554;BME280;19885;42.208;24.952;2023-02-21T15:52:42;99489.31;;;20.41;24.67
33554;BME280;19885;42.208;24.952;2023-02-21T16:00:34;99433.22;;;19.85;24.61
33554;BME280;19885;42.208;24.952;2023-02-21T16:03:27;99488.78;;;20.09;25.20